Dom Pedrito, Brazil
Current Conditions -  °F | °C
As of 11:00 AM on Friday 31 Oct 2014 (Local Time) from SBSM Reporting Station
Scattered Clouds Scattered Clouds  
Wind Chill: 73°   Ceiling: Unl
Heat Index: 73°   Visibility: 6mi
Dew Point: 64°   Wind: 14mph
Humidity: 73%   Direction: 110°ESE
Pressure: 29.88"   Gusts: NA
Location:  30.98°S, 54.67°W
Report Text: SBSM 311300Z 11012KT 9999 SCT015 23/18 Q1012
Loading
Personal Weather Stations






























Interactive Weather Map
Tropical Storm Tracking
New forecast layout! Learn more

10-Day Weather Forecast

Advertisements
Track Severe Weather on mobile